Time;durP1;ratioP1;P1;durP2;ratioP2;P2;SDS_P1;SDS_P2;PMS_P1;PMS_P2;Temp;Humidity;BMP_temperature;BMP_pressure;BME280_temperature;BME280_humidity;BME280_pressure;Samples;Min_cycle;Max_cycle;Signal;HPM_P1;HPM_P2
2023/04/29 00:00:45;;;;;;;5.03;2.30;;;;;;;;;;5115047;28;20293;-78
2023/04/29 00:03:13;;;;;;;3.27;2.70;;;;;;;;;;5114744;28;20277;-80
2023/04/29 00:05:40;;;;;;;5.50;2.70;;;;;;;;;;5114236;28;20638;-80
2023/04/29 00:08:08;;;;;;;3.63;2.80;;;;;;;;;;5114378;28;20650;-80
2023/04/29 00:10:35;;;;;;;3.73;2.80;;;;;;;;;;5114464;28;20665;-79
2023/04/29 00:13:02;;;;;;;3.53;2.73;;;;;;;;;;5114343;28;20198;-80
2023/04/29 00:15:29;;;;;;;5.27;3.03;;;;;;;;;;5114365;28;20288;-80
2023/04/29 00:17:56;;;;;;;5.50;3.17;;;;;;;;;;5114305;28;20287;-79
2023/04/29 00:20:25;;;;;;;4.00;3.40;;;;;;;;;;5114495;28;20613;-78
2023/04/29 00:22:52;;;;;;;4.03;3.40;;;;;;;;;;5114253;28;20281;-80
2023/04/29 00:25:19;;;;;;;4.53;3.20;;;;;;;;;;5114054;28;20249;-78
2023/04/29 00:27:46;;;;;;;4.60;3.23;;;;;;;;;;5114149;28;20205;-80
2023/04/29 00:30:14;;;;;;;5.10;3.50;;;;;;;;;;5114253;28;20194;-80
2023/04/29 00:32:42;;;;;;;4.33;3.60;;;;;;;;;;5113726;28;20197;-79
2023/04/29 00:35:10;;;;;;;6.27;3.97;;;;;;;;;;5114031;28;20201;-80
2023/04/29 00:37:38;;;;;;;4.33;3.37;;;;;;;;;;5113901;28;20201;-80
2023/04/29 00:40:06;;;;;;;4.23;3.50;;;;;;;;;;5113931;28;20232;-80
2023/04/29 00:42:33;;;;;;;4.50;3.50;;;;;;;;;;5113693;28;20663;-80
2023/04/29 00:45:01;;;;;;;4.87;3.27;;;;;;;;;;5113939;28;20221;-80
2023/04/29 00:47:28;;;;;;;4.83;3.63;;;;;;;;;;5113805;28;20251;-80
2023/04/29 00:49:56;;;;;;;4.10;3.43;;;;;;;;;;5113037;28;20229;-81
2023/04/29 00:52:23;;;;;;;4.00;3.10;;;;;;;;;;5113762;28;20285;-80
2023/04/29 00:54:52;;;;;;;4.00;3.20;;;;;;;;;;5113804;28;20201;-80
2023/04/29 00:57:20;;;;;;;4.67;3.00;;;;;;;;;;5113502;28;20745;-80
2023/04/29 00:59:47;;;;;;;4.17;3.10;;;;;;;;;;5113759;28;20220;-80
2023/04/29 01:02:14;;;;;;;3.67;2.90;;;;;;;;;;5113481;28;20232;-80
2023/04/29 01:04:42;;;;;;;4.67;3.00;;;;;;;;;;5112694;28;20197;-80
2023/04/29 01:07:13;;;;;;;4.87;3.30;;;;;;;;;;5113719;28;20198;-81
2023/04/29 01:09:51;;;;;;;5.07;3.33;;;;;;;;;;5113358;28;20296;-81
2023/04/29 01:12:25;;;;;;;4.80;3.50;;;;;;;;;;5113347;28;20273;-80
2023/04/29 01:14:55;;;;;;;6.27;3.73;;;;;;;;;;5112698;28;20704;-80
2023/04/29 01:17:26;;;;;;;5.53;3.60;;;;;;;;;;5112784;28;20654;-80
2023/04/29 01:19:55;;;;;;;4.30;3.30;;;;;;;;;;5113102;28;20194;-80
2023/04/29 01:22:22;;;;;;;3.97;3.13;;;;;;;;;;5113170;28;20200;-80
2023/04/29 01:24:51;;;;;;;4.83;3.27;;;;;;;;;;5112845;28;20286;-79
2023/04/29 01:27:24;;;;;;;4.13;3.03;;;;;;;;;;5112869;28;20200;-79
2023/04/29 01:29:54;;;;;;;4.83;3.20;;;;;;;;;;5113157;28;20198;-80
2023/04/29 01:32:26;;;;;;;5.20;3.97;;;;;;;;;;5112688;28;20256;-80
2023/04/29 01:34:55;;;;;;;4.03;3.40;;;;;;;;;;5112610;28;20240;-80
2023/04/29 01:37:27;;;;;;;4.90;3.37;;;;;;;;;;5112765;28;20193;-80
2023/04/29 01:40:01;;;;;;;4.80;3.67;;;;;;;;;;5111914;28;20229;-80
2023/04/29 01:42:31;;;;;;;4.17;3.27;;;;;;;;;;5112906;28;20236;-80
2023/04/29 01:44:59;;;;;;;4.37;3.37;;;;;;;;;;5112322;28;20629;-80
2023/04/29 01:47:26;;;;;;;4.13;3.37;;;;;;;;;;5112312;28;20277;-79
2023/04/29 01:49:53;;;;;;;4.13;3.20;;;;;;;;;;5112438;28;20288;-80
2023/04/29 01:52:22;;;;;;;5.27;3.27;;;;;;;;;;5112847;28;20236;-79
2023/04/29 01:54:49;;;;;;;5.63;4.00;;;;;;;;;;5112519;28;20289;-80
2023/04/29 01:57:18;;;;;;;4.10;3.10;;;;;;;;;;5112297;28;20670;-81
2023/04/29 01:59:45;;;;;;;4.00;3.03;;;;;;;;;;5112515;28;20190;-80
2023/04/29 02:02:14;;;;;;;4.17;3.00;;;;;;;;;;5111934;28;20288;-79
2023/04/29 02:04:41;;;;;;;4.13;3.03;;;;;;;;;;5112561;28;20251;-81
2023/04/29 02:07:08;;;;;;;6.03;3.47;;;;;;;;;;5112061;28;20261;-80
2023/04/29 02:09:36;;;;;;;4.10;3.20;;;;;;;;;;5112220;28;20198;-80
2023/04/29 02:12:03;;;;;;;4.80;3.30;;;;;;;;;;5112142;28;20803;-80
2023/04/29 02:14:33;;;;;;;4.63;3.07;;;;;;;;;;5112195;28;20605;-80
2023/04/29 02:17:00;;;;;;;3.77;2.60;;;;;;;;;;5111678;28;20209;-80
2023/04/29 02:19:27;;;;;;;3.13;2.37;;;;;;;;;;5111811;28;20236;-80
2023/04/29 02:21:54;;;;;;;3.63;2.50;;;;;;;;;;5112548;28;20217;-80
2023/04/29 02:24:21;;;;;;;3.73;2.53;;;;;;;;;;5112040;28;20281;-80
2023/04/29 02:26:49;;;;;;;2.87;2.17;;;;;;;;;;5111754;28;20229;-79
2023/04/29 02:29:16;;;;;;;3.10;2.03;;;;;;;;;;5112013;28;20233;-80
2023/04/29 02:31:44;;;;;;;3.10;2.37;;;;;;;;;;5111917;28;20296;-80
2023/04/29 02:34:12;;;;;;;2.40;1.93;;;;;;;;;;5111922;28;20221;-80
2023/04/29 02:36:39;;;;;;;3.43;2.10;;;;;;;;;;5111960;28;20281;-80
2023/04/29 02:39:06;;;;;;;3.00;2.17;;;;;;;;;;5111918;28;20194;-80
2023/04/29 02:41:33;;;;;;;4.10;2.80;;;;;;;;;;5111654;28;20229;-80
2023/04/29 02:44:01;;;;;;;3.50;2.40;;;;;;;;;;5103079;28;20208;-80
2023/04/29 02:46:27;;;;;;;3.07;2.17;;;13.50;99.90;;;;;;5091198;28;20222;-80
2023/04/29 02:48:56;;;;;;;3.80;2.50;;;13.70;99.90;;;;;;5091492;28;20214;-80
2023/04/29 02:51:22;;;;;;;3.30;2.50;;;13.80;99.90;;;;;;5092739;28;20233;-80
2023/04/29 02:53:49;;;;;;;4.53;2.93;;;13.70;99.90;;;;;;5095821;28;20194;-80
2023/04/29 02:56:16;;;;;;;5.20;2.83;;;13.60;99.90;;;;;;5095322;28;20198;-81
2023/04/29 02:58:43;;;;;;;3.87;2.87;;;13.60;99.90;;;;;;5095036;28;20206;-80
2023/04/29 03:01:10;;;;;;;4.07;2.93;;;13.70;99.90;;;;;;5095390;28;20281;-80
2023/04/29 03:03:37;;;;;;;4.10;3.03;;;13.80;99.90;;;;;;5095617;28;20190;-80
2023/04/29 03:06:06;;;;;;;5.00;3.57;;;14.00;99.90;;;;;;5095198;28;20222;-80
2023/04/29 03:08:33;;;;;;;4.30;2.90;;;13.90;99.90;;;;;;5095136;28;20230;-80
2023/04/29 03:10:59;;;;;;;5.00;3.07;;;14.00;99.90;;;;;;5095305;28;20222;-80
2023/04/29 03:13:26;;;;;;;4.10;3.10;;;13.80;99.90;;;;;;5099300;28;20221;-80
2023/04/29 03:15:53;;;;;;;4.57;3.30;;;14.10;99.90;;;;;;5115661;28;20794;-80
2023/04/29 03:18:20;;;;;;;4.67;3.37;;;13.80;99.90;;;;;;5115642;28;20217;-80
2023/04/29 03:20:47;;;;;;;5.47;3.97;;;13.80;99.90;;;;;;5115366;28;20654;-80
2023/04/29 03:23:15;;;;;;;5.27;3.63;;;13.90;99.90;;;;;;5115080;28;20285;-80
2023/04/29 03:25:42;;;;;;;5.60;4.20;;;14.10;99.90;;;;;;5115672;28;20356;-80
2023/04/29 03:28:09;;;;;;;5.63;4.33;;;14.00;99.90;;;;;;5115283;28;20232;-80
2023/04/29 03:30:36;;;;;;;6.70;4.50;;;13.90;99.90;;;;;;5115359;28;20193;-80
2023/04/29 03:33:03;;;;;;;5.63;4.50;;;14.00;99.90;;;;;;5115093;28;20202;-80
2023/04/29 03:35:30;;;;;;;6.37;4.33;;;14.20;99.90;;;;;;5115208;28;20280;-80
2023/04/29 03:37:57;;;;;;;7.70;4.80;;;14.00;99.90;;;;;;5114986;28;20233;-80
2023/04/29 03:40:25;;;;;;;5.47;4.03;;;14.00;99.90;;;;;;5115299;28;20721;-79
2023/04/29 03:42:52;;;;;;;7.33;4.57;;;14.00;99.90;;;;;;5114635;28;20257;-80
2023/04/29 03:45:19;;;;;;;7.07;5.33;;;14.30;99.90;;;;;;5115128;28;20280;-80
2023/04/29 03:47:46;;;;;;;6.87;5.07;;;;;;;;;;5114886;28;20269;-80
2023/04/29 03:50:13;;;;;;;6.80;4.93;;;;;;;;;;5114910;28;20725;-80
2023/04/29 03:52:40;;;;;;;9.20;5.63;;;;;;;;;;5115271;28;20194;-79
2023/04/29 03:55:08;;;;;;;8.17;5.30;;;;;;;;;;5114598;28;20564;-80
2023/04/29 03:57:36;;;;;;;8.33;5.60;;;;;;;;;;5114408;28;20289;-80
2023/04/29 04:00:04;;;;;;;7.30;5.90;;;;;;;;;;5114764;28;20200;-80
2023/04/29 04:02:34;;;;;;;8.03;6.17;;;;;;;;;;5113962;28;20221;-79
2023/04/29 04:05:01;;;;;;;8.83;6.27;;;13.10;99.90;;;;;;5114761;28;20631;-81
2023/04/29 04:07:28;;;;;;;8.77;5.60;;;13.80;99.90;;;;;;5114741;28;20324;-81
2023/04/29 04:09:55;;;;;;;8.87;6.43;;;13.80;99.90;;;;;;5114379;28;20288;-80
2023/04/29 04:12:22;;;;;;;8.23;6.30;;;13.90;99.90;;;;;;5114110;28;20204;-80
2023/04/29 04:14:51;;;;;;;8.20;6.27;;;13.90;99.90;;;;;;5114162;28;20292;-80
2023/04/29 04:17:18;;;;;;;9.50;6.30;;;14.00;99.90;;;;;;5114241;28;20282;-79
2023/04/29 04:19:44;;;;;;;8.40;6.40;;;14.10;99.90;;;;;;5114272;28;20236;-80
2023/04/29 04:22:11;;;;;;;8.50;6.60;;;14.10;99.90;;;;;;5114199;28;20293;-79
2023/04/29 04:24:38;;;;;;;8.00;6.07;;;;;;;;;;5113913;28;20666;-80
2023/04/29 04:27:06;;;;;;;10.63;7.00;;;13.70;99.90;;;;;;5113600;28;20793;-80
2023/04/29 04:29:32;;;;;;;8.80;6.43;;;14.00;99.90;;;;;;5114182;28;20190;-80
2023/04/29 04:32:01;;;;;;;8.10;6.10;;;13.80;99.90;;;;;;5114132;28;20281;-80
2023/04/29 04:34:28;;;;;;;8.70;6.90;;;13.90;99.90;;;;;;5114069;28;20293;-80
2023/04/29 04:36:55;;;;;;;10.03;7.40;;;13.90;99.90;;;;;;5114327;28;20240;-80
2023/04/29 04:39:22;;;;;;;8.73;7.00;;;13.60;99.90;;;;;;5113997;28;20214;-80
2023/04/29 04:41:48;;;;;;;9.73;7.43;;;13.60;99.90;;;;;;5113822;28;20280;-80
2023/04/29 04:44:15;;;;;;;9.50;6.83;;;13.60;99.90;;;;;;5113890;28;20225;-80
2023/04/29 04:46:42;;;;;;;9.73;7.67;;;13.70;99.90;;;;;;5113901;28;20257;-79
2023/04/29 04:49:11;;;;;;;13.10;7.93;;;13.70;99.90;;;;;;5113942;28;20258;-80
2023/04/29 04:51:37;;;;;;;11.13;7.87;;;13.80;99.90;;;;;;5114180;28;20281;-79
2023/04/29 04:54:04;;;;;;;9.77;7.50;;;13.80;99.90;;;;;;5113401;28;20293;-81
2023/04/29 04:56:31;;;;;;;14.37;8.13;;;13.80;99.90;;;;;;5113052;28;20615;-81
2023/04/29 04:58:58;;;;;;;9.57;7.43;;;13.80;99.90;;;;;;5113996;28;20280;-80
2023/04/29 05:01:25;;;;;;;8.97;7.17;;;13.90;99.90;;;;;;5113098;28;20197;-80
2023/04/29 05:03:52;;;;;;;9.80;7.70;;;13.70;99.90;;;;;;5113680;28;20229;-81
2023/04/29 05:06:20;;;;;;;9.13;7.57;;;13.60;99.90;;;;;;5113693;28;20304;-80
2023/04/29 05:08:47;;;;;;;10.00;7.23;;;13.60;99.90;;;;;;5113144;28;20277;-80
2023/04/29 05:11:18;;;;;;;9.30;7.23;;;13.80;99.90;;;;;;5112939;28;20399;-80
2023/04/29 05:13:45;;;;;;;11.67;7.10;;;13.80;99.90;;;;;;5112816;28;20189;-79
2023/04/29 05:16:12;;;;;;;10.53;7.30;;;13.70;99.90;;;;;;5113112;28;20293;-80
2023/04/29 05:18:39;;;;;;;9.60;7.50;;;13.70;99.90;;;;;;5113070;28;20232;-79
2023/04/29 05:21:05;;;;;;;9.47;7.20;;;13.70;99.90;;;;;;5113235;28;20280;-79
2023/04/29 05:23:34;;;;;;;9.03;7.10;;;13.70;99.90;;;;;;5112930;27;20190;-80
2023/04/29 05:26:01;;;;;;;10.23;7.63;;;13.80;99.90;;;;;;5112564;28;20779;-80
2023/04/29 05:28:27;;;;;;;10.27;6.93;;;13.60;99.90;;;;;;5112913;28;20257;-79
2023/04/29 05:30:54;;;;;;;9.03;6.97;;;13.90;99.90;;;;;;5113068;28;20229;-80
2023/04/29 05:33:21;;;;;;;10.60;7.57;;;13.90;99.90;;;;;;5112717;28;20281;-80
2023/04/29 05:35:48;;;;;;;10.43;7.00;;;13.80;99.90;;;;;;5113012;28;20225;-80
2023/04/29 05:38:15;;;;;;;10.23;7.40;;;13.80;99.90;;;;;;5112437;28;20288;-80
2023/04/29 05:40:44;;;;;;;9.30;7.30;;;;;;;;;;5112525;28;20289;-80
2023/04/29 05:43:11;;;;;;;9.70;8.07;;;13.70;99.90;;;;;;5112477;28;20675;-79
2023/04/29 05:45:38;;;;;;;10.93;8.07;;;13.80;99.90;;;;;;5112862;28;20252;-80
2023/04/29 05:48:05;;;;;;;10.43;8.17;;;13.80;99.90;;;;;;5112504;28;20308;-80
2023/04/29 05:50:34;;;;;;;10.87;8.40;;;13.80;99.90;;;;;;5112674;28;20273;-80
2023/04/29 05:53:01;;;;;;;10.90;8.17;;;13.60;99.90;;;;;;5111894;28;20685;-80
2023/04/29 05:55:28;;;;;;;9.90;8.20;;;13.80;99.90;;;;;;5112590;28;20289;-81
2023/04/29 05:57:56;;;;;;;9.43;7.37;;;13.80;99.90;;;;;;5112560;28;20667;-80
2023/04/29 06:00:23;;;;;;;9.60;7.73;;;13.70;99.90;;;;;;5112585;28;20799;-80
2023/04/29 06:02:50;;;;;;;8.90;7.30;;;13.70;99.90;;;;;;5112258;28;20218;-80
2023/04/29 06:05:17;;;;;;;9.43;7.53;;;13.60;99.90;;;;;;5112555;28;20205;-79
2023/04/29 06:07:44;;;;;;;8.80;7.27;;;13.80;99.90;;;;;;5111591;28;20316;-80
2023/04/29 06:10:11;;;;;;;10.43;7.53;;;13.50;99.90;;;;;;5112188;28;20193;-80
2023/04/29 06:12:38;;;;;;;8.37;7.33;;;13.50;99.90;;;;;;5112125;28;20276;-80
2023/04/29 06:15:07;;;;;;;8.53;7.50;;;13.40;99.90;;;;;;5112209;28;20276;-81
2023/04/29 06:17:34;;;;;;;9.40;7.20;;;13.50;99.90;;;;;;5112032;28;20659;-80
2023/04/29 06:20:03;;;;;;;8.47;7.37;;;13.50;99.90;;;;;;5112159;28;20221;-80
2023/04/29 06:22:30;;;;;;;9.13;7.27;;;13.50;99.90;;;;;;5111715;28;20276;-80
2023/04/29 06:24:57;;;;;;;8.60;7.33;;;13.60;99.90;;;;;;5111918;28;20654;-80
2023/04/29 06:27:24;;;;;;;9.40;8.00;;;13.50;99.90;;;;;;5111882;28;20320;-80
2023/04/29 06:29:50;;;;;;;9.23;7.47;;;13.50;99.90;;;;;;5112060;28;20193;-80
2023/04/29 06:32:19;;;;;;;8.40;6.90;;;13.50;99.90;;;;;;5111994;28;20202;-80
2023/04/29 06:34:46;;;;;;;8.57;7.20;;;13.50;99.90;;;;;;5112247;28;20607;-80
2023/04/29 06:37:13;;;;;;;8.60;7.50;;;13.40;99.90;;;;;;5111698;28;20276;-80
2023/04/29 06:39:40;;;;;;;8.73;7.00;;;13.40;99.90;;;;;;5111577;28;20662;-80
2023/04/29 06:42:07;;;;;;;10.40;8.10;;;13.30;99.90;;;;;;5111592;28;20316;-80
2023/04/29 06:44:34;;;;;;;8.50;7.40;;;;;;;;;;5111818;28;20193;-78
2023/04/29 06:47:01;;;;;;;9.03;7.40;;;13.10;99.90;;;;;;5112515;28;20233;-80
2023/04/29 06:49:29;;;;;;;9.57;7.70;;;;;;;;;;5111800;28;20240;-80
2023/04/29 06:51:58;;;;;;;8.23;7.27;;;;;;;;;;5111202;28;20193;-80
2023/04/29 06:54:26;;;;;;;8.07;7.00;;;;;;;;;;5111612;28;20681;-80
2023/04/29 06:56:53;;;;;;;9.40;8.00;;;;;;;;;;5111575;28;20624;-80
2023/04/29 06:59:20;;;;;;;9.90;8.30;;;;;;;;;;5111406;28;20193;-80
2023/04/29 07:01:48;;;;;;;9.90;8.13;;;;;;;;;;5111593;28;20666;-80
2023/04/29 07:04:15;;;;;;;9.63;8.63;;;;;;;;;;5111671;28;20291;-81
2023/04/29 07:06:45;;;;;;;10.17;8.33;;;;;;;;;;5111509;28;20221;-80
2023/04/29 07:09:13;;;;;;;9.00;8.10;;;;;;;;;;5111639;28;20239;-80
2023/04/29 07:11:40;;;;;;;9.13;8.23;;;;;;;;;;5111617;28;20197;-80
2023/04/29 07:14:08;;;;;;;9.20;8.20;;;;;;;;;;5111336;28;20285;-80
2023/04/29 07:16:35;;;;;;;9.90;8.50;;;;;;;;;;5111942;28;20285;-80
2023/04/29 07:19:02;;;;;;;8.80;7.87;;;;;;;;;;5111646;28;20284;-80
2023/04/29 07:21:30;;;;;;;10.20;8.67;;;;;;;;;;5111000;28;20292;-80
2023/04/29 07:24:01;;;;;;;10.83;8.73;;;;;;;;;;5111770;28;20197;-79
2023/04/29 07:26:28;;;;;;;9.23;8.10;;;;;;;;;;5111634;28;20567;-80
2023/04/29 07:28:55;;;;;;;9.60;7.83;;;;;;;;;;5111314;28;20246;-80
2023/04/29 07:31:22;;;;;;;9.80;8.57;;;;;;;;;;5111512;28;20200;-81
2023/04/29 07:33:49;;;;;;;10.23;7.77;;;;;;;;;;5111457;28;20228;-80
2023/04/29 07:36:17;;;;;;;9.33;7.87;;;;;;;;;;5111112;28;21016;-80
2023/04/29 07:38:44;;;;;;;8.73;7.83;;;;;;;;;;5114442;28;20243;-80
2023/04/29 07:41:12;;;;;;;10.50;8.37;;;;;;;;;;5115064;28;20666;-80
2023/04/29 07:43:39;;;;;;;9.13;8.20;;;;;;;;;;5114801;28;20257;-80
2023/04/29 07:46:07;;;;;;;9.40;8.23;;;;;;;;;;5115407;28;20277;-78
2023/04/29 07:48:38;;;;;;;8.90;8.00;;;;;;;;;;5114989;28;20225;-80
2023/04/29 07:51:05;;;;;;;8.40;7.57;;;;;;;;;;5114931;28;20194;-79
2023/04/29 07:53:32;;;;;;;8.93;8.03;;;;;;;;;;5114713;28;20280;-78
2023/04/29 07:55:59;;;;;;;9.70;7.77;;;;;;;;;;5115214;28;20230;-80
2023/04/29 07:58:28;;;;;;;8.40;7.60;;;;;;;;;;5114909;28;20277;-77
2023/04/29 08:00:56;;;;;;;7.80;7.00;;;;;;;;;;5114805;28;20262;-80
2023/04/29 08:03:23;;;;;;;7.87;7.07;;;;;;;;;;5113937;28;20657;-79
2023/04/29 08:05:52;;;;;;;8.57;6.83;;;;;;;;;;5114916;28;20278;-80
2023/04/29 08:08:19;;;;;;;7.93;7.13;;;;;;;;;;5114576;28;20225;-79
2023/04/29 08:10:46;;;;;;;7.87;7.07;;;;;;;;;;5114394;28;20189;-80
2023/04/29 08:13:14;;;;;;;8.80;7.37;;;;;;;;;;5114246;28;20190;-79
2023/04/29 08:15:42;;;;;;;9.67;7.63;;;;;;;;;;5114275;28;20605;-80
2023/04/29 08:18:09;;;;;;;10.30;7.73;;;;;;;;;;5114338;28;20222;-80
2023/04/29 08:20:36;;;;;;;8.80;7.90;;;;;;;;;;5114421;28;20276;-80
2023/04/29 08:23:04;;;;;;;8.57;7.67;;;;;;;;;;5114466;28;20198;-79
2023/04/29 08:25:31;;;;;;;7.83;7.03;;;;;;;;;;5114417;28;20194;-80
2023/04/29 08:27:58;;;;;;;7.23;6.50;;;;;;;;;;5114107;28;20320;-80
2023/04/29 08:30:25;;;;;;;7.30;6.60;;;;;;;;;;5114106;28;20236;-80
2023/04/29 08:32:54;;;;;;;7.23;6.53;;;;;;;;;;5113510;28;20289;-79
2023/04/29 08:35:21;;;;;;;7.77;6.93;;;;;;;;;;5114163;28;20273;-80
2023/04/29 08:37:48;;;;;;;6.80;6.20;;;;;;;;;;5114112;28;20234;-79
2023/04/29 08:40:16;;;;;;;7.53;6.33;;;;;;;;;;5113711;28;20221;-80
2023/04/29 08:42:45;;;;;;;7.13;6.13;;;;;;;;;;5113946;28;20672;-80
2023/04/29 08:45:13;;;;;;;5.97;5.40;;;;;;;;;;5113945;28;20243;-79
2023/04/29 08:47:41;;;;;;;6.57;5.97;;;;;;;;;;5113133;28;20320;-80
2023/04/29 08:50:10;;;;;;;7.73;5.70;;;14.00;99.90;;;;;;5112455;28;21059;-80
2023/04/29 08:52:37;;;;;;;6.50;5.80;;;14.00;99.90;;;;;;5113517;28;20609;-80
2023/04/29 08:55:04;;;;;;;6.53;5.93;;;13.80;99.90;;;;;;5113626;28;20198;-79
2023/04/29 08:57:38;;;;;;;6.80;6.10;;;13.70;99.90;;;;;;5113927;28;20294;-81
2023/04/29 09:00:09;;;;;;;6.33;5.73;;;;;;;;;;5113599;28;20189;-80
2023/04/29 09:02:39;;;;;;;6.40;5.80;;;;;;;;;;5113042;28;20391;-79
2023/04/29 09:05:10;;;;;;;6.30;5.67;;;;;;;;;;5113367;28;20297;-80
2023/04/29 09:07:38;;;;;;;8.20;6.37;;;;;;;;;;5113453;28;20642;-80
2023/04/29 09:10:06;;;;;;;6.73;6.13;;;;;;;;;;5113274;28;20288;-80
2023/04/29 09:12:34;;;;;;;6.80;6.10;;;;;;;;;;5113444;28;20280;-80
2023/04/29 09:15:02;;;;;;;8.30;6.00;;;;;;;;;;5113296;28;20201;-79
2023/04/29 09:17:39;;;;;;;6.50;5.90;;;;;;;;;;5112807;28;20194;-80
2023/04/29 09:20:26;;;;;;;6.63;6.03;;;;;;;;;;5112997;28;20300;-80
2023/04/29 09:22:55;;;;;;;6.03;5.43;;;;;;;;;;5113069;28;20285;-80
2023/04/29 09:25:22;;;;;;;6.07;5.47;;;;;;;;;;5113123;28;20276;-79
2023/04/29 09:27:50;;;;;;;6.03;5.50;;;;;;;;;;5112722;28;20249;-80
2023/04/29 09:30:18;;;;;;;6.03;5.50;;;;;;;;;;5112622;28;20193;-80
2023/04/29 09:32:46;;;;;;;5.97;5.47;;;;;;;;;;5112639;28;20216;-80
2023/04/29 09:35:24;;;;;;;5.63;5.03;;;;;;;;;;5112996;28;20194;-80
2023/04/29 09:37:52;;;;;;;7.17;5.50;;;;;;;;;;5113021;28;20285;-80
2023/04/29 09:40:30;;;;;;;5.73;5.23;;;;;;;;;;5112742;28;20193;-78
2023/04/29 09:42:57;;;;;;;6.10;5.50;;;;;;;;;;5112548;28;20235;-80
2023/04/29 09:45:35;;;;;;;5.70;5.20;;;;;;;;;;5112402;28;20196;-78
2023/04/29 09:48:03;;;;;;;6.33;5.27;;;;;;;;;;5112413;28;20236;-80
2023/04/29 09:50:31;;;;;;;6.32;5.70;;;;;;;;;;5112514;28;20238;-80
2023/04/29 09:52:58;;;;;;;6.90;5.68;;;15.60;99.90;;;;;;5112535;28;20202;-80
2023/04/29 09:55:25;;;;;;;5.93;5.32;;;;;;;;;;5112696;28;20280;-79
2023/04/29 09:57:54;;;;;;;6.25;5.65;;;;;;;;;;5112633;28;20663;-79
2023/04/29 10:00:21;;;;;;;7.68;6.07;;;;;;;;;;5111449;28;20182;-80
2023/04/29 10:02:50;;;;;;;5.75;5.25;;;;;;;;;;5112470;28;20299;-80
2023/04/29 10:05:17;;;;;;;6.85;6.15;;;;;;;;;;5112507;28;20233;-80
2023/04/29 10:07:47;;;;;;;6.25;5.65;;;;;;;;;;5112338;28;20314;-80
2023/04/29 10:10:14;;;;;;;6.75;5.95;;;;;;;;;;5112334;28;20205;-80
2023/04/29 10:12:42;;;;;;;5.97;5.38;;;;;;;;;;5112325;28;20221;-80
2023/04/29 10:15:17;;;;;;;5.60;5.10;;;;;;;;;;5111553;28;20693;-80
2023/04/29 10:17:48;;;;;;;5.97;4.75;;;;;;;;;;5112790;28;20189;-80
2023/04/29 10:20:16;;;;;;;6.00;5.22;;;;;;;;;;5112073;28;20190;-80
2023/04/29 10:22:46;;;;;;;5.28;4.78;;;;;;;;;;5111921;28;20288;-80
2023/04/29 10:25:14;;;;;;;5.88;5.28;;;;;;;;;;5112180;28;20573;-79
2023/04/29 10:27:43;;;;;;;5.70;5.15;;;;;;;;;;5112031;28;20198;-80
2023/04/29 10:30:12;;;;;;;4.80;4.40;;;;;;;;;;5112068;28;20200;-80
2023/04/29 10:32:41;;;;;;;5.13;4.63;;;;;;;;;;5112014;28;20208;-80
2023/04/29 10:35:10;;;;;;;5.47;4.90;;;;;;;;;;5111797;28;20670;-80
2023/04/29 10:37:37;;;;;;;5.55;5.05;;;;;;;;;;5112060;28;20198;-80
2023/04/29 10:40:09;;;;;;;5.78;4.88;;;;;;;;;;5112168;28;20765;-80
2023/04/29 10:42:39;;;;;;;5.80;5.20;;;;;;;;;;5111675;28;20437;-79
2023/04/29 10:45:23;;;;;;;5.95;5.03;;;;;;;;;;5112494;28;20201;-80
2023/04/29 10:48:09;;;;;;;5.60;5.10;;;;;;;;;;5112326;28;20609;-80
2023/04/29 10:50:42;;;;;;;5.63;5.13;;;;;;;;;;5111963;28;20217;-80
2023/04/29 10:53:09;;;;;;;5.20;4.70;;;;;;;;;;5111667;28;20617;-79
2023/04/29 10:55:37;;;;;;;5.63;5.13;;;;;;;;;;5111742;28;20793;-81
2023/04/29 10:58:04;;;;;;;5.10;4.70;;;;;;;;;;5111305;28;20583;-81
2023/04/29 11:00:33;;;;;;;5.70;5.10;;;;;;;;;;5112291;28;20289;-81
2023/04/29 11:03:01;;;;;;;6.18;5.22;;;;;;;;;;5111378;28;20745;-81
2023/04/29 11:05:31;;;;;;;5.13;4.68;;;;;;;;;;5111388;28;21001;-80
2023/04/29 11:08:12;;;;;;;4.60;4.20;;;;;;;;;;5111597;28;20194;-79
2023/04/29 11:10:41;;;;;;;6.00;5.30;;;;;;;;;;5111771;28;20679;-81
2023/04/29 11:13:24;;;;;;;5.32;4.90;;;;;;;;;;5113235;28;20194;-81
2023/04/29 11:15:53;;;;;;;5.30;4.90;;;;;;;;;;5115735;28;20189;-80
2023/04/29 11:18:20;;;;;;;5.20;4.70;;;;;;;;;;5115782;28;20226;-81
2023/04/29 11:21:06;;;;;;;5.28;4.78;;;;;;;;;;5115537;28;20285;-80
2023/04/29 11:23:35;;;;;;;6.38;5.30;;;;;;;;;;5115474;28;20198;-80
2023/04/29 11:26:02;;;;;;;5.68;5.18;;;;;;;;;;5115251;28;20292;-81
2023/04/29 11:28:30;;;;;;;6.10;5.55;;;;;;;;;;5115051;28;20324;-81
2023/04/29 11:31:01;;;;;;;5.88;5.38;;;;;;;;;;5115083;28;20292;-81
2023/04/29 11:33:28;;;;;;;5.45;4.90;;;;;;;;;;5115169;28;20208;-81
2023/04/29 11:35:56;;;;;;;5.47;4.97;;;;;;;;;;5115689;28;20284;-81
2023/04/29 11:38:24;;;;;;;5.80;5.20;;;;;;;;;;5115393;28;20221;-81
2023/04/29 11:40:52;;;;;;;6.00;5.40;;;;;;;;;;5114707;28;20198;-80
2023/04/29 11:43:19;;;;;;;5.55;5.05;;;;;;;;;;5114945;28;20332;-80
2023/04/29 11:45:52;;;;;;;4.85;4.40;;;;;;;;;;5115355;28;20194;-81
2023/04/29 11:48:20;;;;;;;5.50;5.00;;;;;;;;;;5115315;28;20198;-80
2023/04/29 11:50:48;;;;;;;5.68;5.18;;;;;;;;;;5114916;28;20190;-80
2023/04/29 11:53:15;;;;;;;5.85;4.82;;;;;;;;;;5114893;28;20292;-80
2023/04/29 11:55:42;;;;;;;6.93;4.95;;;;;;;;;;5114749;28;20233;-80
2023/04/29 11:58:10;;;;;;;5.10;4.70;;;;;;;;;;5114468;28;20550;-80
2023/04/29 12:00:37;;;;;;;5.57;5.07;;;;;;;;;;5114769;28;20197;-81
2023/04/29 12:03:08;;;;;;;5.18;4.78;;;;;;;;;;5114817;28;20285;-79
2023/04/29 12:05:37;;;;;;;4.85;4.35;;;;;;;;;;5115031;28;20205;-80
2023/04/29 12:08:04;;;;;;;5.40;5.00;;;;;;;;;;5114565;28;20669;-81
2023/04/29 12:10:31;;;;;;;5.10;4.53;;;;;;;;;;5114129;28;20677;-81
2023/04/29 12:12:59;;;;;;;5.57;5.07;;;;;;;;;;5114412;28;20280;-80
2023/04/29 12:15:28;;;;;;;6.72;5.45;;;;;;;;;;5114632;28;20202;-80
2023/04/29 12:17:55;;;;;;;5.28;4.88;;;;;;;;;;5114415;28;20220;-81
2023/04/29 12:20:22;;;;;;;4.22;3.92;;;;;;;;;;5115002;27;20198;-81
2023/04/29 12:22:51;;;;;;;4.80;4.40;;;;;;;;;;5113898;28;20258;-80
2023/04/29 12:25:19;;;;;;;5.30;4.45;;;;;;;;;;5114160;28;20193;-81
2023/04/29 12:27:46;;;;;;;4.68;4.20;;;;;;;;;;5114101;28;20201;-81
2023/04/29 12:30:14;;;;;;;4.57;4.18;;;;;;;;;;5114413;28;20261;-81
2023/04/29 12:32:42;;;;;;;4.25;3.85;;;;;;;;;;5114086;28;20738;-81
2023/04/29 12:35:15;;;;;;;4.10;3.80;;;;;;;;;;5114162;28;20285;-81
2023/04/29 12:37:43;;;;;;;3.55;3.25;;;;;;;;;;5113936;28;20197;-81
2023/04/29 12:40:16;;;;;;;3.70;3.40;;;;;;;;;;5113769;28;20236;-80
2023/04/29 12:42:45;;;;;;;3.97;3.67;;;;;;;;;;5113787;28;20236;-81
2023/04/29 12:45:26;;;;;;;4.20;3.80;;;;;;;;;;5113914;28;20198;-79
2023/04/29 12:47:53;;;;;;;4.65;4.25;;;;;;;;;;5113629;28;20236;-81
2023/04/29 12:50:21;;;;;;;4.13;3.83;;;;;;;;;;5113747;28;20806;-81
2023/04/29 12:52:48;;;;;;;3.53;3.22;;;;;;;;;;5113601;28;20635;-81
2023/04/29 12:55:16;;;;;;;4.15;3.75;;;;;;;;;;5113568;28;20221;-81
2023/04/29 12:57:44;;;;;;;4.38;4.03;;;;;;;;;;5113512;28;20289;-81
2023/04/29 13:00:11;;;;;;;4.07;3.78;;;;;;;;;;5113679;28;20220;-81
2023/04/29 13:02:39;;;;;;;3.80;3.30;;;;;;;;;;5113871;28;20285;-81
2023/04/29 13:05:06;;;;;;;3.80;3.50;;;;;;;;;;5113685;28;20288;-81
2023/04/29 13:07:33;;;;;;;3.85;3.50;;;;;;;;;;5113133;27;20221;-80
2023/04/29 13:10:02;;;;;;;4.07;3.65;;;;;;;;;;5113131;28;20225;-81
2023/04/29 13:12:32;;;;;;;4.03;3.67;;;;;;;;;;5113631;28;20194;-81
2023/04/29 13:15:00;;;;;;;3.53;3.22;;;;;;;;;;5113237;27;20194;-81
2023/04/29 13:17:28;;;;;;;3.53;3.22;;;;;;;;;;5113115;28;20197;-80
2023/04/29 13:19:57;;;;;;;5.10;3.90;;;;;;;;;;5113208;28;20280;-81
2023/04/29 13:22:26;;;;;;;3.50;3.20;;;;;;;;;;5112476;28;20281;-81
2023/04/29 13:24:56;;;;;;;3.38;3.08;;;;;;;;;;5113253;28;20198;-81
2023/04/29 13:27:24;;;;;;;3.60;3.30;;;;;;;;;;5113008;28;20224;-81
2023/04/29 13:29:55;;;;;;;3.15;2.85;;;;;;;;;;5112665;28;20287;-81
2023/04/29 13:32:24;;;;;;;3.92;3.05;;;;;;;;;;5112765;28;20635;-82
2023/04/29 13:34:51;;;;;;;4.25;3.40;;;;;;;;;;5112474;28;20202;-81
2023/04/29 13:37:21;;;;;;;3.70;3.40;;;;;;;;;;5112445;28;20684;-79
2023/04/29 13:39:49;;;;;;;3.63;3.30;;;;;;;;;;5112979;28;20200;-81
2023/04/29 13:42:16;;;;;;;4.95;4.53;;;;;;;;;;5112625;28;20316;-80
2023/04/29 13:44:44;;;;;;;4.35;3.45;;;;;;;;;;5112653;28;20277;-78
2023/04/29 13:47:13;;;;;;;2.90;2.70;;;;;;;;;;5112619;28;20293;-81
2023/04/29 13:49:43;;;;;;;3.60;3.22;;;;;;;;;;5112784;28;20324;-81
2023/04/29 13:52:11;;;;;;;3.45;3.15;;;;;;;;;;5112291;28;20292;-81
2023/04/29 13:54:38;;;;;;;2.90;2.70;;;;;;;;;;5112632;28;20259;-81
2023/04/29 13:57:06;;;;;;;3.20;2.90;;;;;;;;;;5112831;28;20280;-81
2023/04/29 13:59:35;;;;;;;2.90;2.70;;;;;;;;;;5112534;28;20225;-81
2023/04/29 14:02:03;;;;;;;3.17;2.70;;;;;;;;;;5112368;28;20205;-81
2023/04/29 14:04:31;;;;;;;3.38;2.58;;;;;;;;;;5112364;28;20237;-81
2023/04/29 14:06:58;;;;;;;2.60;2.40;;;;;;;;;;5111941;28;20193;-81
2023/04/29 14:09:27;;;;;;;3.40;3.10;;;;;;;;;;5112143;28;20688;-81
2023/04/29 14:11:56;;;;;;;2.97;2.67;;;;;;;;;;5111944;28;20285;-80